createdAt,value
2018-04-07T00:00:23.483Z,3.80
2018-04-07T00:02:51.418Z,4.03
2018-04-07T00:05:18.998Z,4.30
2018-04-07T00:07:46.582Z,3.77
2018-04-07T00:10:14.162Z,3.70
2018-04-07T00:12:41.742Z,3.67
2018-04-07T00:15:09.539Z,3.80
2018-04-07T00:17:37.135Z,3.80
2018-04-07T00:20:04.759Z,3.97
2018-04-07T00:22:32.407Z,3.80
2018-04-07T00:24:59.996Z,3.43
2018-04-07T00:27:27.582Z,3.80
2018-04-07T00:29:55.203Z,3.57
2018-04-07T00:32:22.810Z,3.47
2018-04-07T00:34:50.406Z,3.47
2018-04-07T00:37:18.027Z,3.83
2018-04-07T00:39:45.663Z,3.43
2018-04-07T00:42:13.274Z,3.80
2018-04-07T00:44:40.886Z,4.27
2018-04-07T00:47:08.475Z,3.87
2018-04-07T00:49:36.066Z,3.93
2018-04-07T00:52:03.651Z,4.40
2018-04-07T00:54:31.272Z,4.27
2018-04-07T00:56:58.929Z,4.60
2018-04-07T00:59:26.514Z,4.33
2018-04-07T01:01:54.104Z,4.70
2018-04-07T01:04:21.691Z,4.73
2018-04-07T01:06:49.302Z,4.43
2018-04-07T01:09:16.878Z,4.97
2018-04-07T01:11:44.468Z,5.33
2018-04-07T01:14:12.091Z,4.97
2018-04-07T01:16:39.663Z,4.80
2018-04-07T01:19:07.256Z,4.97
2018-04-07T01:21:34.855Z,4.60
2018-04-07T01:24:02.466Z,5.13
2018-04-07T01:26:30.070Z,4.40
2018-04-07T01:28:57.656Z,4.77
2018-04-07T01:31:25.271Z,4.70
2018-04-07T01:33:52.898Z,5.17
2018-04-07T01:36:20.494Z,4.67
2018-04-07T01:38:48.081Z,5.17
2018-04-07T01:41:15.710Z,5.70
2018-04-07T01:43:43.301Z,5.73
2018-04-07T01:46:10.916Z,5.17
2018-04-07T01:48:38.535Z,5.33
2018-04-07T01:51:06.116Z,5.17
2018-04-07T01:53:33.715Z,5.77
2018-04-07T01:56:01.303Z,5.53
2018-04-07T01:58:28.886Z,4.60
2018-04-07T02:00:56.457Z,4.77
2018-04-07T02:03:24.062Z,4.30
2018-04-07T02:05:51.686Z,4.37
2018-04-07T02:08:19.294Z,4.40
2018-04-07T02:10:46.906Z,4.00
2018-04-07T02:13:14.525Z,4.43
2018-04-07T02:15:42.133Z,4.10
2018-04-07T02:18:09.732Z,4.03
2018-04-07T02:20:37.311Z,4.53
2018-04-07T02:23:04.931Z,4.70
2018-04-07T02:25:32.550Z,3.73
2018-04-07T02:28:00.145Z,3.80
2018-04-07T02:30:27.755Z,4.30
2018-04-07T02:32:55.336Z,4.20
2018-04-07T02:35:22.918Z,3.63
2018-04-07T02:37:50.595Z,4.10
2018-04-07T02:40:18.180Z,4.00
2018-04-07T02:42:45.765Z,3.47
2018-04-07T02:45:13.430Z,3.37
2018-04-07T02:47:41.011Z,4.33
2018-04-07T02:50:08.587Z,4.03
2018-04-07T02:52:36.248Z,4.30
2018-04-07T02:55:03.860Z,4.20
2018-04-07T02:57:31.460Z,4.07
2018-04-07T02:59:59.040Z,3.73
2018-04-07T03:02:26.624Z,4.03
2018-04-07T03:04:54.222Z,3.90
2018-04-07T03:07:21.800Z,3.77
2018-04-07T03:09:49.434Z,3.77
2018-04-07T03:12:17.030Z,3.93
2018-04-07T03:14:44.631Z,3.80
2018-04-07T03:17:12.212Z,3.90
2018-04-07T03:19:39.811Z,4.03
2018-04-07T03:22:07.458Z,3.60
2018-04-07T03:24:35.091Z,4.10
2018-04-07T03:27:02.683Z,3.70
2018-04-07T03:29:30.262Z,3.83
2018-04-07T03:31:57.887Z,3.63
2018-04-07T03:34:25.482Z,3.47
2018-04-07T03:36:53.082Z,3.33
2018-04-07T03:39:20.702Z,3.97
2018-04-07T03:41:48.282Z,3.97
2018-04-07T03:44:15.875Z,5.63
2018-04-07T03:46:43.462Z,4.47
2018-04-07T03:49:11.115Z,4.10
2018-04-07T03:51:38.696Z,3.83
2018-04-07T03:54:06.296Z,4.13
2018-04-07T03:56:33.887Z,4.40
2018-04-07T03:59:01.511Z,4.00
2018-04-07T04:01:29.101Z,4.20
2018-04-07T04:03:56.750Z,3.97
2018-04-07T04:06:24.335Z,4.27
2018-04-07T04:08:51.922Z,4.40
2018-04-07T04:11:19.547Z,3.67
2018-04-07T04:13:47.138Z,4.07
2018-04-07T04:16:14.718Z,3.80
2018-04-07T04:18:42.341Z,4.03
2018-04-07T04:21:09.937Z,4.27
2018-04-07T04:23:37.523Z,4.23
2018-04-07T04:26:05.106Z,4.40
2018-04-07T04:28:32.691Z,4.13
2018-04-07T04:31:00.322Z,4.30
2018-04-07T04:33:27.950Z,4.93
2018-04-07T04:35:55.594Z,5.10
2018-04-07T04:38:23.206Z,6.60
2018-04-07T04:40:50.807Z,5.43
2018-04-07T04:43:18.406Z,5.33
2018-04-07T04:45:45.995Z,5.10
2018-04-07T04:48:13.634Z,5.10
2018-04-07T04:50:41.238Z,4.60
2018-04-07T04:53:08.822Z,4.57
2018-04-07T04:55:36.463Z,4.93
2018-04-07T04:58:04.068Z,4.87
2018-04-07T05:00:31.658Z,4.70
2018-04-07T05:02:59.356Z,4.63
2018-04-07T05:05:26.953Z,4.53
2018-04-07T05:07:54.534Z,5.07
2018-04-07T05:10:22.203Z,4.70
2018-04-07T05:12:49.827Z,4.47
2018-04-07T05:15:17.557Z,4.17
2018-04-07T05:17:45.174Z,4.50
2018-04-07T05:20:12.839Z,4.43
2018-04-07T05:22:40.458Z,4.70
2018-04-07T05:25:08.047Z,5.17
2018-04-07T05:27:35.714Z,5.33
2018-04-07T05:30:03.311Z,4.97
2018-04-07T05:32:31.517Z,4.63
2018-04-07T05:34:59.124Z,5.40
2018-04-07T05:37:26.726Z,5.27
2018-04-07T05:39:54.385Z,5.10
2018-04-07T05:42:22.059Z,4.80
2018-04-07T05:44:49.703Z,4.63
2018-04-07T05:47:17.330Z,5.40
2018-04-07T05:49:44.970Z,5.00
2018-04-07T05:52:12.588Z,5.40
2018-04-07T05:54:40.240Z,6.50
2018-04-07T05:57:07.843Z,11.17
2018-04-07T05:59:35.466Z,5.73
2018-04-07T06:02:03.071Z,5.03
2018-04-07T06:04:30.651Z,5.97
2018-04-07T06:06:58.243Z,5.17
2018-04-07T06:09:25.980Z,5.80
2018-04-07T06:11:53.566Z,5.20
2018-04-07T06:14:21.202Z,5.60
2018-04-07T06:16:48.839Z,5.60
2018-04-07T06:19:16.471Z,6.77
2018-04-07T06:21:44.086Z,5.40
2018-04-07T06:24:11.749Z,5.57
2018-04-07T06:26:39.352Z,5.80
2018-04-07T06:29:06.934Z,5.80
2018-04-07T06:31:34.539Z,6.00
2018-04-07T06:34:02.195Z,6.03
2018-04-07T06:36:29.826Z,5.80
2018-04-07T06:38:57.411Z,5.93
2018-04-07T06:41:25.042Z,6.30
2018-04-07T06:43:52.642Z,6.40
2018-04-07T06:46:20.279Z,4.80
2018-04-07T06:48:47.902Z,5.67
2018-04-07T06:51:15.499Z,5.10
2018-04-07T06:53:43.173Z,5.83
2018-04-07T06:56:10.772Z,5.77
2018-04-07T06:58:38.359Z,5.53
2018-04-07T07:01:05.974Z,6.63
2018-04-07T07:03:33.571Z,6.13
2018-04-07T07:06:01.191Z,5.67
2018-04-07T07:08:28.858Z,5.17
2018-04-07T07:10:56.454Z,5.60
2018-04-07T07:13:24.124Z,5.23
2018-04-07T07:15:51.791Z,5.33
2018-04-07T07:18:19.536Z,5.30
2018-04-07T07:20:47.142Z,5.90
2018-04-07T07:23:14.768Z,5.27
2018-04-07T07:25:42.437Z,5.13
2018-04-07T07:28:10.060Z,5.33
2018-04-07T07:30:37.648Z,5.13
2018-04-07T07:33:05.279Z,4.53
2018-04-07T07:35:32.874Z,4.80
2018-04-07T07:38:00.485Z,4.27
2018-04-07T07:40:28.075Z,4.00
2018-04-07T07:42:55.750Z,5.07
2018-04-07T07:45:23.347Z,5.10
2018-04-07T07:47:50.959Z,5.33
2018-04-07T07:50:18.603Z,4.60
2018-04-07T07:52:46.207Z,4.43
2018-04-07T07:55:13.894Z,4.27
2018-04-07T07:57:41.483Z,4.80
2018-04-07T08:00:09.072Z,5.07
2018-04-07T08:02:36.735Z,4.50
2018-04-07T08:05:04.352Z,4.67
2018-04-07T08:07:32.496Z,5.07
2018-04-07T08:10:00.118Z,4.47
2018-04-07T08:12:27.743Z,4.00
2018-04-07T08:14:55.374Z,4.20
2018-04-07T08:17:22.971Z,4.53
2018-04-07T08:19:50.571Z,4.67
2018-04-07T08:22:18.190Z,4.50
2018-04-07T08:24:45.818Z,4.30
2018-04-07T08:27:13.426Z,4.37
2018-04-07T08:29:41.046Z,4.90
2018-04-07T08:32:08.735Z,4.53
2018-04-07T08:34:36.403Z,5.13
2018-04-07T08:37:03.990Z,4.93
2018-04-07T08:39:31.663Z,5.90
2018-04-07T08:41:59.191Z,4.80
2018-04-07T08:44:26.819Z,5.00
2018-04-07T08:46:54.446Z,4.90
2018-04-07T08:49:22.055Z,4.70
2018-04-07T08:51:49.639Z,4.60
2018-04-07T08:54:17.279Z,4.97
2018-04-07T08:56:44.908Z,5.53
2018-04-07T08:59:12.578Z,5.53
2018-04-07T09:01:40.191Z,6.17
2018-04-07T09:04:07.793Z,6.60
2018-04-07T09:06:35.410Z,5.87
2018-04-07T09:09:03.047Z,5.77
2018-04-07T09:11:30.695Z,5.63
2018-04-07T09:13:58.290Z,5.73
2018-04-07T09:16:25.875Z,5.37
2018-04-07T09:18:53.502Z,5.93
2018-04-07T09:21:21.083Z,4.87
2018-04-07T09:23:48.683Z,4.93
2018-04-07T09:26:16.306Z,5.63
2018-04-07T09:28:43.894Z,5.60
2018-04-07T09:31:18.115Z,4.87
2018-04-07T09:33:45.750Z,5.00
2018-04-07T09:36:14.334Z,5.40
2018-04-07T09:38:41.924Z,5.60
2018-04-07T09:41:09.569Z,4.80
2018-04-07T09:43:37.172Z,4.70
2018-04-07T09:46:04.800Z,4.80
2018-04-07T09:48:32.483Z,4.73
2018-04-07T09:51:00.112Z,5.27
2018-04-07T09:53:27.698Z,5.63
2018-04-07T09:55:55.334Z,4.73
2018-04-07T09:58:22.943Z,5.27
2018-04-07T10:00:50.552Z,4.47
2018-04-07T10:03:22.051Z,3.93
2018-04-07T10:05:50.443Z,4.53
2018-04-07T10:08:18.032Z,4.27
2018-04-07T10:10:45.774Z,4.37
2018-04-07T10:13:13.380Z,4.57
2018-04-07T10:15:40.979Z,4.60
2018-04-07T10:18:08.579Z,4.87
2018-04-07T10:20:36.174Z,4.67
2018-04-07T10:23:03.799Z,4.80
2018-04-07T10:25:31.499Z,5.00
2018-04-07T10:27:59.139Z,4.60
2018-04-07T10:30:26.753Z,4.13
2018-04-07T10:32:55.307Z,3.47
2018-04-07T10:35:22.964Z,4.43
2018-04-07T10:37:50.603Z,3.87
2018-04-07T10:40:18.224Z,3.67
2018-04-07T10:42:45.928Z,3.60
2018-04-07T10:45:13.643Z,3.60
2018-04-07T10:47:41.275Z,3.17
2018-04-07T10:50:08.992Z,3.60
2018-04-07T10:52:36.635Z,4.40
2018-04-07T10:55:04.323Z,4.50
2018-04-07T10:57:32.031Z,3.90
2018-04-07T10:59:59.679Z,3.87
2018-04-07T11:02:27.319Z,5.03
2018-04-07T11:04:55.336Z,4.27
2018-04-07T11:07:22.927Z,3.70
2018-04-07T11:09:50.512Z,3.47
2018-04-07T11:12:18.112Z,3.10
2018-04-07T11:14:45.755Z,3.03
2018-04-07T11:17:13.362Z,3.30
2018-04-07T11:19:40.962Z,3.00
2018-04-07T11:22:08.603Z,3.30
2018-04-07T11:24:36.219Z,3.40
2018-04-07T11:27:03.836Z,2.70
2018-04-07T11:29:31.431Z,3.83
2018-04-07T11:31:59.016Z,3.43
2018-04-07T11:34:26.618Z,4.60
2018-04-07T11:36:55.827Z,3.60
2018-04-07T11:39:23.874Z,3.40
2018-04-07T11:41:51.475Z,2.73
2018-04-07T11:44:19.067Z,2.57
2018-04-07T11:46:46.663Z,2.73
2018-04-07T11:49:14.318Z,2.83
2018-04-07T11:51:41.910Z,2.90
2018-04-07T11:54:09.557Z,2.77
2018-04-07T11:56:37.131Z,2.57
2018-04-07T11:59:04.739Z,2.73
2018-04-07T12:01:32.421Z,2.33
2018-04-07T12:04:00.011Z,2.97
2018-04-07T12:06:27.594Z,2.93
2018-04-07T12:08:55.214Z,2.57
2018-04-07T12:11:22.806Z,2.80
2018-04-07T12:13:50.387Z,3.20
2018-04-07T12:16:18.127Z,2.93
2018-04-07T12:18:45.744Z,2.80
2018-04-07T12:21:13.399Z,2.73
2018-04-07T12:23:41.015Z,2.60
2018-04-07T12:26:08.704Z,2.70
2018-04-07T12:28:36.292Z,2.70
2018-04-07T12:31:03.899Z,3.00
2018-04-07T12:33:31.522Z,2.50
2018-04-07T12:35:59.108Z,3.07
2018-04-07T12:38:26.696Z,2.60
2018-04-07T12:40:54.414Z,2.67
2018-04-07T12:43:22.007Z,2.73
2018-04-07T12:45:49.636Z,2.70
2018-04-07T12:48:17.252Z,2.63
2018-04-07T12:50:45.591Z,2.70
2018-04-07T12:53:13.183Z,2.40
2018-04-07T12:55:40.862Z,2.77
2018-04-07T12:58:08.480Z,2.80
2018-04-07T13:00:36.076Z,3.60
2018-04-07T13:03:03.654Z,3.07
2018-04-07T13:05:31.259Z,3.10
2018-04-07T13:07:58.896Z,2.80
2018-04-07T13:10:26.586Z,2.80
2018-04-07T13:12:54.167Z,2.77
2018-04-07T13:15:21.787Z,2.63
2018-04-07T13:17:49.374Z,2.50
2018-04-07T13:20:16.963Z,2.60
2018-04-07T13:22:44.571Z,2.80
2018-04-07T13:25:12.248Z,2.50
2018-04-07T13:27:39.874Z,2.70
2018-04-07T13:30:07.467Z,2.67
2018-04-07T13:32:35.103Z,2.90
2018-04-07T13:35:02.698Z,2.50
2018-04-07T13:37:30.290Z,3.20
2018-04-07T13:39:57.921Z,3.20
2018-04-07T13:42:25.542Z,2.83
2018-04-07T13:44:53.124Z,3.00
2018-04-07T13:47:20.796Z,3.00
2018-04-07T13:49:48.390Z,3.13
2018-04-07T13:52:15.971Z,2.80
2018-04-07T13:54:43.575Z,3.00
2018-04-07T13:57:11.211Z,2.80
2018-04-07T13:59:38.796Z,2.80
2018-04-07T14:02:06.402Z,2.50
2018-04-07T14:04:34.034Z,2.83
2018-04-07T14:07:01.699Z,3.10
2018-04-07T14:09:29.319Z,2.67
2018-04-07T14:11:56.939Z,2.57
2018-04-07T14:14:24.568Z,2.67
2018-04-07T14:16:52.176Z,2.70
2018-04-07T14:19:19.819Z,2.70
2018-04-07T14:21:47.451Z,2.67
2018-04-07T14:24:15.036Z,3.20
2018-04-07T14:26:42.618Z,2.87
2018-04-07T14:29:10.203Z,2.40
2018-04-07T14:31:37.823Z,2.70
2018-04-07T14:34:05.474Z,2.80
2018-04-07T14:36:33.068Z,2.80
2018-04-07T14:39:00.650Z,2.80
2018-04-07T14:41:28.327Z,2.63
2018-04-07T14:43:55.921Z,2.83
2018-04-07T14:46:23.535Z,2.63
2018-04-07T14:48:51.231Z,2.80
2018-04-07T14:51:18.806Z,2.83
2018-04-07T14:53:46.390Z,2.83
2018-04-07T14:56:14.028Z,2.73
2018-04-07T14:58:42.482Z,2.67
2018-04-07T15:01:10.083Z,2.70
2018-04-07T15:03:37.711Z,2.50
2018-04-07T15:06:05.297Z,2.80
2018-04-07T15:08:32.890Z,2.83
2018-04-07T15:11:00.503Z,2.80
2018-04-07T15:13:28.163Z,2.90
2018-04-07T15:15:55.714Z,2.93
2018-04-07T15:18:23.318Z,3.47
2018-04-07T15:20:50.940Z,2.60
2018-04-07T15:23:18.530Z,3.03
2018-04-07T15:25:46.119Z,2.50
2018-04-07T15:28:13.702Z,2.43
2018-04-07T15:30:41.282Z,3.00
2018-04-07T15:33:08.874Z,2.67
2018-04-07T15:35:36.463Z,2.60
2018-04-07T15:38:04.094Z,3.10
2018-04-07T15:40:31.699Z,2.83
2018-04-07T15:42:59.335Z,2.83
2018-04-07T15:45:26.915Z,2.60
2018-04-07T15:47:54.494Z,3.53
2018-04-07T15:50:22.084Z,3.40
2018-04-07T15:52:49.715Z,2.97
2018-04-07T15:55:17.303Z,3.17
2018-04-07T15:57:44.899Z,2.70
2018-04-07T16:00:12.510Z,2.50
2018-04-07T16:02:40.103Z,2.90
2018-04-07T16:05:07.741Z,3.10
2018-04-07T16:07:35.430Z,2.90
2018-04-07T16:10:03.066Z,2.80
2018-04-07T16:12:30.694Z,3.53
2018-04-07T16:14:58.314Z,4.70
2018-04-07T16:17:25.957Z,3.70
2018-04-07T16:19:53.546Z,3.50
2018-04-07T16:22:21.144Z,3.90
2018-04-07T16:24:48.734Z,3.10
2018-04-07T16:27:16.362Z,3.83
2018-04-07T16:29:44.052Z,3.60
2018-04-07T16:32:11.640Z,3.73
2018-04-07T16:34:39.227Z,4.10
2018-04-07T16:37:06.835Z,4.30
2018-04-07T16:39:34.511Z,6.57
2018-04-07T16:42:02.207Z,5.50
2018-04-07T16:44:32.743Z,5.37
2018-04-07T16:47:00.466Z,5.70
2018-04-07T16:49:28.119Z,5.73
2018-04-07T16:51:55.715Z,7.83
2018-04-07T16:54:23.338Z,6.10
2018-04-07T16:56:50.944Z,5.90
2018-04-07T16:59:18.567Z,5.23
2018-04-07T17:01:46.200Z,5.37
2018-04-07T17:04:13.786Z,5.47
2018-04-07T17:06:41.375Z,5.37
2018-04-07T17:09:10.069Z,5.07
2018-04-07T17:11:37.723Z,5.47
2018-04-07T17:14:05.319Z,4.70
2018-04-07T17:16:32.938Z,4.60
2018-04-07T17:19:00.528Z,4.67
2018-04-07T17:21:28.126Z,5.03
2018-04-07T17:23:55.767Z,5.00
2018-04-07T17:26:23.377Z,5.00
2018-04-07T17:28:51.000Z,4.77
2018-04-07T17:31:18.623Z,5.20
2018-04-07T17:33:46.231Z,4.53
2018-04-07T17:36:13.880Z,4.87
2018-04-07T17:38:41.567Z,4.87
2018-04-07T17:41:09.163Z,4.90
2018-04-07T17:43:36.774Z,5.00
2018-04-07T17:46:04.376Z,5.10
2018-04-07T17:48:32.019Z,5.73
2018-04-07T17:50:59.619Z,5.40
2018-04-07T17:53:27.218Z,5.50
2018-04-07T17:55:54.931Z,6.10
2018-04-07T17:58:22.527Z,6.00
2018-04-07T18:00:50.115Z,6.13
2018-04-07T18:03:17.711Z,6.27
2018-04-07T18:05:45.297Z,7.03
2018-04-07T18:08:12.920Z,6.20
2018-04-07T18:10:40.533Z,6.17
2018-04-07T18:13:08.158Z,6.53
2018-04-07T18:15:35.786Z,6.20
2018-04-07T18:18:03.390Z,6.97
2018-04-07T18:20:30.976Z,7.10
2018-04-07T18:22:58.563Z,8.63
2018-04-07T18:25:26.148Z,7.97
2018-04-07T18:27:53.779Z,7.43
2018-04-07T18:30:21.378Z,8.97
2018-04-07T18:32:49.006Z,8.53
2018-04-07T18:35:16.602Z,8.53
2018-04-07T18:37:44.198Z,7.90
2018-04-07T18:40:11.831Z,7.00
2018-04-07T18:42:39.475Z,7.47
2018-04-07T18:45:07.058Z,7.03
2018-04-07T18:47:34.698Z,6.37
2018-04-07T18:50:02.291Z,6.40
2018-04-07T18:52:29.899Z,7.17
2018-04-07T18:54:57.526Z,7.63
2018-04-07T18:57:25.140Z,7.37
2018-04-07T18:59:52.759Z,8.17
2018-04-07T19:02:20.347Z,8.20
2018-04-07T19:04:47.999Z,9.13
2018-04-07T19:07:15.643Z,7.73
2018-04-07T19:09:43.318Z,7.90
2018-04-07T19:12:10.907Z,7.30
2018-04-07T19:14:38.499Z,6.97
2018-04-07T19:17:06.167Z,7.77
2018-04-07T19:19:33.795Z,7.57
2018-04-07T19:22:01.379Z,7.50
2018-04-07T19:24:29.007Z,8.40
2018-04-07T19:26:56.594Z,9.40
2018-04-07T19:29:24.247Z,7.80
2018-04-07T19:31:51.842Z,8.57
2018-04-07T19:34:19.450Z,8.40
2018-04-07T19:36:47.082Z,7.47
2018-04-07T19:39:14.679Z,9.53
2018-04-07T19:41:42.303Z,9.90
2018-04-07T19:44:09.895Z,9.00
2018-04-07T19:46:37.483Z,9.07
2018-04-07T19:49:05.083Z,8.37
2018-04-07T19:51:32.727Z,9.47
2018-04-07T19:54:00.408Z,9.40
2018-04-07T19:56:28.006Z,10.03
2018-04-07T19:58:55.607Z,9.67
2018-04-07T20:01:23.208Z,8.73
2018-04-07T20:03:50.827Z,7.97
2018-04-07T20:06:18.451Z,9.07
2018-04-07T20:08:46.044Z,8.50
2018-04-07T20:11:13.636Z,8.07
2018-04-07T20:13:41.241Z,8.10
2018-04-07T20:16:08.898Z,7.90
2018-04-07T20:18:36.522Z,8.53
2018-04-07T20:21:04.202Z,8.30
2018-04-07T20:23:31.790Z,8.27
2018-04-07T20:25:59.502Z,8.23
2018-04-07T20:28:27.083Z,8.43
2018-04-07T20:30:54.731Z,7.90
2018-04-07T20:33:22.318Z,7.83
2018-04-07T20:35:49.906Z,8.27
2018-04-07T20:38:17.571Z,8.50
2018-04-07T20:40:56.130Z,7.97
2018-04-07T20:43:25.611Z,8.60
2018-04-07T20:45:53.258Z,9.43
2018-04-07T20:48:20.854Z,9.27
2018-04-07T20:50:48.459Z,8.57
2018-04-07T20:53:16.051Z,9.07
2018-04-07T20:55:43.678Z,9.27
2018-04-07T20:58:11.325Z,9.30
2018-04-07T21:00:38.957Z,9.50
2018-04-07T21:03:06.627Z,9.30
2018-04-07T21:05:34.227Z,9.43
2018-04-07T21:08:01.875Z,8.97
2018-04-07T21:10:29.510Z,8.57
2018-04-07T21:12:57.112Z,9.67
2018-04-07T21:15:24.743Z,9.60
2018-04-07T21:17:52.395Z,10.00
2018-04-07T21:20:19.982Z,9.80
2018-04-07T21:22:47.622Z,9.13
2018-04-07T21:25:15.231Z,9.73
2018-04-07T21:27:42.843Z,8.77
2018-04-07T21:30:10.446Z,8.83
2018-04-07T21:32:38.041Z,9.20
2018-04-07T21:35:05.661Z,9.37
2018-04-07T21:37:33.318Z,8.90
2018-04-07T21:40:00.951Z,9.20
2018-04-07T21:42:28.566Z,9.13
2018-04-07T21:44:56.151Z,9.50
2018-04-07T21:47:23.783Z,9.40
2018-04-07T21:49:51.399Z,9.33
2018-04-07T21:52:18.995Z,9.43
2018-04-07T21:54:46.658Z,9.73
2018-04-07T21:57:14.252Z,9.30
2018-04-07T21:59:41.863Z,9.30
2018-04-07T22:02:09.482Z,9.80
2018-04-07T22:04:37.128Z,9.77
2018-04-07T22:07:04.718Z,9.57
2018-04-07T22:09:32.318Z,9.87
2018-04-07T22:12:00.049Z,10.27
2018-04-07T22:14:27.639Z,10.27
2018-04-07T22:16:55.272Z,9.60
2018-04-07T22:19:22.934Z,9.80
2018-04-07T22:21:50.555Z,10.30
2018-04-07T22:24:18.190Z,9.67
2018-04-07T22:26:45.833Z,9.80
2018-04-07T22:29:13.515Z,11.07
2018-04-07T22:31:41.175Z,11.13
2018-04-07T22:34:08.775Z,11.87
2018-04-07T22:36:36.378Z,11.33
2018-04-07T22:39:04.079Z,11.40
2018-04-07T22:41:31.698Z,11.47
2018-04-07T22:43:59.289Z,11.50
2018-04-07T22:46:26.923Z,11.20
2018-04-07T22:48:54.514Z,11.33
2018-04-07T22:51:22.122Z,11.03
2018-04-07T22:53:49.781Z,10.63
2018-04-07T22:56:17.401Z,10.80
2018-04-07T22:58:44.998Z,11.17
2018-04-07T23:01:12.637Z,11.43
2018-04-07T23:03:40.252Z,11.60
2018-04-07T23:06:07.843Z,11.13
2018-04-07T23:08:35.463Z,10.97
2018-04-07T23:11:03.115Z,12.27
2018-04-07T23:13:30.815Z,12.13
2018-04-07T23:15:58.409Z,11.57
2018-04-07T23:18:26.568Z,12.23
2018-04-07T23:20:54.211Z,12.17
2018-04-07T23:23:21.839Z,10.70
2018-04-07T23:25:49.439Z,12.20
2018-04-07T23:28:17.038Z,11.30
2018-04-07T23:30:44.675Z,12.20
2018-04-07T23:33:12.298Z,11.93
2018-04-07T23:35:39.911Z,12.60
2018-04-07T23:38:07.602Z,12.43
2018-04-07T23:40:35.235Z,13.00
2018-04-07T23:43:02.835Z,13.17
2018-04-07T23:45:30.435Z,14.40
2018-04-07T23:47:58.043Z,14.03
2018-04-07T23:50:25.658Z,14.07
2018-04-07T23:52:53.269Z,14.40
2018-04-07T23:55:20.897Z,13.63
2018-04-07T23:57:48.483Z,12.97
